Time;durP1;ratioP1;P1;durP2;ratioP2;P2;SDS_P1;SDS_P2;PMS_P1;PMS_P2;Temp;Humidity;BMP_temperature;BMP_pressure;BME280_temperature;BME280_humidity;BME280_pressure;Samples;Min_cycle;Max_cycle;Signal;HPM_P1;HPM_P2
2021/05/26 00:01:24;;;;;;;5.93;4.13;;;9.20;89.20;;;;;;5015430;28;20173;-84
2021/05/26 00:03:51;;;;;;;3.97;3.57;;;9.20;89.10;;;;;;5015199;28;20307;-84
2021/05/26 00:06:17;;;;;;;5.77;4.03;;;9.20;89.10;;;;;;5033190;28;20161;-84
2021/05/26 00:08:42;;;;;;;4.37;3.93;;;9.30;89.10;;;;;;5032669;28;20299;-84
2021/05/26 00:11:11;;;;;;;6.13;4.57;;;9.30;89.30;;;;;;5032804;28;20224;-84
2021/05/26 00:13:37;;;;;;;4.53;4.13;;;9.30;89.40;;;;;;5033103;28;20188;-84
2021/05/26 00:16:05;;;;;;;5.83;4.57;;;9.30;89.40;;;;;;5032839;28;20169;-84
2021/05/26 00:18:31;;;;;;;6.77;4.33;;;9.30;89.40;;;;;;5032698;28;20614;-84
2021/05/26 00:20:57;;;;;;;4.67;4.00;;;9.30;89.30;;;;;;5032812;28;20165;-84
2021/05/26 00:23:23;;;;;;;4.87;3.77;;;9.30;89.30;;;;;;5032931;28;20219;-84
2021/05/26 00:25:48;;;;;;;3.83;3.50;;;9.30;89.10;;;;;;5032732;28;20169;-84
2021/05/26 00:28:15;;;;;;;4.13;3.73;;;9.30;88.90;;;;;;5035554;28;20195;-84
2021/05/26 00:30:44;;;;;;;5.53;4.23;;;9.30;89.00;;;;;;5036221;28;20161;-84
2021/05/26 00:33:10;;;;;;;4.07;3.73;;;9.30;89.00;;;;;;5018476;28;20188;-84
2021/05/26 00:35:36;;;;;;;4.77;3.60;;;9.30;89.00;;;;;;5036473;28;20543;-84
2021/05/26 00:38:05;;;;;;;5.27;3.90;;;9.30;88.90;;;;;;5018404;28;20192;-84
2021/05/26 00:40:30;;;;;;;5.60;4.23;;;9.20;88.90;;;;;;5018365;28;20667;-84
2021/05/26 00:42:56;;;;;;;5.63;5.00;;;9.20;89.00;;;;;;5018324;28;20193;-84
2021/05/26 00:45:22;;;;;;;5.30;4.63;;;9.30;89.10;;;;;;5035985;28;20164;-84
2021/05/26 00:47:49;;;;;;;8.07;5.03;;;9.20;89.20;;;;;;5035897;28;20193;-84
2021/05/26 00:50:17;;;;;;;6.63;5.80;;;9.20;89.30;;;;;;5018190;28;20256;-84
2021/05/26 00:52:44;;;;;;;11.30;5.73;;;9.30;89.40;;;;;;5018387;28;20172;-84
2021/05/26 00:55:15;;;;;;;5.93;5.40;;;9.30;89.30;;;;;;5036037;28;20173;-85
2021/05/26 00:57:41;;;;;;;9.63;5.10;;;9.30;89.20;;;;;;5017945;28;20169;-84
2021/05/26 01:00:09;;;;;;;6.17;5.57;;;9.20;89.30;;;;;;5035703;28;20253;-84
2021/05/26 01:02:35;;;;;;;6.23;5.73;;;9.20;89.20;;;;;;5018304;28;20568;-84
2021/05/26 01:05:01;;;;;;;7.70;5.83;;;9.30;89.30;;;;;;5035690;28;20235;-84
2021/05/26 01:07:26;;;;;;;7.03;6.40;;;9.30;89.20;;;;;;5035581;28;20671;-84
2021/05/26 01:09:52;;;;;;;7.03;6.30;;;9.20;89.30;;;;;;5035393;28;20246;-85
2021/05/26 01:12:17;;;;;;;8.17;6.63;;;9.20;89.30;;;;;;5035609;28;20177;-84
2021/05/26 01:14:43;;;;;;;8.00;7.20;;;9.20;89.30;;;;;;5017820;28;20184;-84
2021/05/26 01:17:09;;;;;;;11.60;7.97;;;9.20;89.50;;;;;;5035583;28;20746;-84
2021/05/26 01:19:34;;;;;;;9.57;7.77;;;9.20;89.70;;;;;;5017723;28;20200;-84
2021/05/26 01:22:00;;;;;;;9.53;8.53;;;9.20;89.70;;;;;;5017522;28;20200;-85
2021/05/26 01:24:25;;;;;;;9.47;8.57;;;9.30;89.80;;;;;;5035867;28;20197;-85
2021/05/26 01:26:52;;;;;;;10.60;8.97;;;9.30;89.90;;;;;;5035338;28;20169;-84
2021/05/26 01:29:20;;;;;;;13.10;10.30;;;9.20;90.20;;;;;;5035414;28;20640;-84
2021/05/26 01:31:45;;;;;;;12.63;10.50;;;9.30;90.30;;;;;;5035395;28;20169;-84
2021/05/26 01:34:11;;;;;;;12.47;10.43;;;9.30;90.20;;;;;;5035323;28;20534;-84
2021/05/26 01:36:41;;;;;;;11.70;10.53;;;9.30;90.40;;;;;;5035426;28;20227;-84
2021/05/26 01:39:07;;;;;;;11.83;10.60;;;9.30;90.30;;;;;;5034079;28;20192;-84
2021/05/26 01:41:32;;;;;;;16.00;11.53;;;9.30;90.40;;;;;;5035594;28;20169;-85
2021/05/26 01:43:58;;;;;;;12.50;11.20;;;9.30;90.40;;;;;;5035378;28;20598;-84
2021/05/26 01:46:24;;;;;;;13.00;11.70;;;9.30;90.40;;;;;;5017252;28;20173;-84
2021/05/26 01:48:51;;;;;;;12.80;11.00;;;9.30;90.50;;;;;;5016997;28;20193;-85
2021/05/26 01:51:17;;;;;;;18.20;11.77;;;9.30;90.50;;;;;;5017084;28;20267;-84
2021/05/26 01:53:44;;;;;;;15.30;11.87;;;9.30;90.40;;;;;;5035185;28;20177;-84
2021/05/26 01:56:24;;;;;;;15.57;13.20;;;9.30;90.50;;;;;;5034792;28;20177;-84
2021/05/26 01:58:52;;;;;;;17.87;13.53;;;9.30;90.50;;;;;;5034703;28;20203;-84
2021/05/26 02:01:18;;;;;;;14.20;12.70;;;9.30;90.40;;;;;;5016938;28;20176;-85
2021/05/26 02:03:45;;;;;;;15.10;12.70;;;9.30;90.50;;;;;;5034666;28;20193;-85
2021/05/26 02:06:12;;;;;;;15.17;13.67;;;9.30;90.50;;;;;;5034586;28;20176;-84
2021/05/26 02:08:39;;;;;;;14.33;12.83;;;9.30;90.50;;;;;;5034392;28;20287;-84
2021/05/26 02:13:49;;;;;;;16.97;14.00;;;9.30;90.50;;;;;;5034814;28;20203;-85
2021/05/26 02:16:15;;;;;;;15.53;13.27;;;9.30;90.60;;;;;;5034273;28;20168;-85
2021/05/26 02:18:40;;;;;;;18.70;14.03;;;9.30;90.60;;;;;;5034877;28;20192;-85
2021/05/26 02:21:06;;;;;;;20.27;14.67;;;9.30;90.40;;;;;;5034356;28;20176;-85
2021/05/26 02:23:32;;;;;;;19.63;15.23;;;9.30;90.40;;;;;;5034459;28;20566;-85
2021/05/26 02:25:58;;;;;;;15.40;13.80;;;9.30;90.10;;;;;;5034126;28;20254;-84
2021/05/26 02:28:24;;;;;;;17.97;13.90;;;9.20;90.10;;;;;;5107944;22;20218;-84
2021/05/26 02:30:49;;;;;;;14.53;13.03;;;9.30;90.20;;;;;;5034028;28;20161;-85
2021/05/26 02:33:15;;;;;;;15.30;13.73;;;9.30;90.20;;;;;;5033915;28;20674;-85
2021/05/26 02:35:41;;;;;;;19.30;13.33;;;9.20;90.00;;;;;;5034010;28;20547;-84
2021/05/26 02:38:06;;;;;;;15.77;13.47;;;9.20;90.00;;;;;;5033883;28;20180;-84
2021/05/26 02:40:33;;;;;;;17.23;14.00;;;9.20;89.90;;;;;;5016048;28;20177;-84
2021/05/26 02:43:00;;;;;;;16.27;14.53;;;9.20;90.10;;;;;;5015937;28;20308;-85
2021/05/26 02:45:26;;;;;;;18.73;13.70;;;9.20;90.20;;;;;;5015821;28;20173;-85
2021/05/26 02:47:52;;;;;;;15.90;12.93;;;9.20;90.40;;;;;;5016200;28;20610;-85
2021/05/26 02:50:18;;;;;;;22.17;12.77;;;9.20;90.30;;;;;;5015772;28;20192;-84
2021/05/26 02:52:48;;;;;;;13.40;12.13;;;9.30;90.30;;;;;;5033724;28;20181;-84
2021/05/26 02:55:14;;;;;;;22.70;12.50;;;9.30;90.20;;;;;;5015862;28;20214;-84
2021/05/26 02:57:40;;;;;;;14.43;12.00;;;9.30;90.00;;;;;;5015836;28;20187;-84
2021/05/26 03:00:09;;;;;;;14.60;13.13;;;9.30;89.90;;;;;;5034315;28;20200;-84
2021/05/26 03:02:34;;;;;;;19.97;12.40;;;9.30;90.10;;;;;;5015736;28;20263;-84
2021/05/26 03:05:00;;;;;;;16.60;13.20;;;9.20;90.10;;;;;;5015747;28;20172;-84
2021/05/26 03:07:26;;;;;;;15.43;13.83;;;9.30;90.00;;;;;;5015986;28;20742;-85
2021/05/26 03:09:51;;;;;;;16.70;13.83;;;9.30;90.00;;;;;;5033393;28;20184;-84
2021/05/26 03:12:17;;;;;;;13.43;12.23;;;9.30;90.00;;;;;;5015688;28;20215;-84
2021/05/26 03:14:43;;;;;;;16.07;12.30;;;9.30;90.10;;;;;;5033242;28;20539;-84
2021/05/26 03:17:09;;;;;;;17.90;13.00;;;9.30;90.30;;;;;;5015659;28;20199;-84
2021/05/26 03:19:35;;;;;;;15.73;14.13;;;9.30;90.30;;;;;;5033353;28;20358;-84
2021/05/26 03:22:00;;;;;;;14.53;13.00;;;9.30;90.70;;;;;;5033111;28;20676;-84
2021/05/26 03:24:26;;;;;;;15.03;13.47;;;9.30;90.90;;;;;;5033452;28;20219;-84
2021/05/26 03:26:52;;;;;;;21.07;13.53;;;9.30;90.90;;;;;;5033135;28;20175;-84
2021/05/26 03:29:17;;;;;;;15.13;12.67;;;9.30;90.80;;;;;;5015284;28;20299;-84
2021/05/26 03:31:44;;;;;;;23.10;11.83;;;9.30;90.90;;;;;;5032983;28;20227;-85
2021/05/26 03:34:09;;;;;;;16.37;12.23;;;9.30;90.60;;;;;;5015425;28;20173;-84
2021/05/26 03:36:40;;;;;;;12.10;10.20;;;9.30;90.50;;;;;;5033173;28;20173;-84
2021/05/26 03:39:10;;;;;;;12.17;11.07;;;9.30;90.30;;;;;;5033359;28;20246;-84
2021/05/26 03:41:36;;;;;;;12.93;11.10;;;9.30;90.10;;;;;;5033272;28;20656;-84
2021/05/26 03:44:01;;;;;;;16.40;11.20;;;9.30;90.20;;;;;;5033022;28;20228;-84
2021/05/26 03:46:27;;;;;;;16.13;11.20;;;9.30;90.20;;;;;;5032967;28;20172;-83
2021/05/26 03:48:53;;;;;;;13.83;10.63;;;9.30;90.30;;;;;;5032931;28;20314;-84
2021/05/26 03:51:19;;;;;;;14.93;10.57;;;9.30;90.20;;;;;;5015155;28;20267;-84
2021/05/26 03:53:45;;;;;;;12.13;10.50;;;9.30;90.00;;;;;;5033194;28;20254;-84
2021/05/26 03:56:10;;;;;;;12.17;10.47;;;9.40;90.00;;;;;;5015241;28;20188;-84
2021/05/26 03:58:37;;;;;;;14.07;9.90;;;9.40;89.90;;;;;;5033184;28;20620;-84
2021/05/26 04:01:04;;;;;;;12.80;9.53;;;9.40;89.50;;;;;;5015154;28;20285;-84
2021/05/26 04:03:30;;;;;;;17.10;10.90;;;9.40;89.60;;;;;;5036083;28;20687;-84
2021/05/26 04:05:55;;;;;;;11.53;10.37;;;9.40;89.60;;;;;;5036959;28;20169;-84
2021/05/26 04:08:21;;;;;;;16.17;10.60;;;9.50;89.80;;;;;;5019018;28;20195;-84
2021/05/26 04:10:47;;;;;;;15.93;10.93;;;9.40;89.90;;;;;;5018707;28;20169;-84
2021/05/26 04:13:13;;;;;;;14.20;10.67;;;9.30;90.10;;;;;;5018810;28;20227;-84
2021/05/26 04:15:39;;;;;;;13.53;11.03;;;9.30;90.10;;;;;;5018759;28;20173;-84
2021/05/26 04:18:08;;;;;;;12.83;11.27;;;9.30;90.30;;;;;;5036418;28;20676;-84
2021/05/26 04:20:35;;;;;;;16.27;10.90;;;9.30;90.40;;;;;;5036655;28;20169;-84
2021/05/26 04:23:01;;;;;;;14.40;10.70;;;9.30;90.30;;;;;;5018740;28;20311;-85
2021/05/26 04:25:26;;;;;;;16.53;10.47;;;9.30;90.00;;;;;;5036632;28;20636;-84
2021/05/26 04:27:52;;;;;;;11.80;10.60;;;9.30;90.10;;;;;;5036363;28;20169;-84
2021/05/26 04:30:19;;;;;;;14.77;10.50;;;9.30;90.10;;;;;;5036396;28;20596;-84
2021/05/26 04:32:45;;;;;;;16.87;11.13;;;9.40;90.00;;;;;;5036297;28;20614;-84
2021/05/26 04:35:11;;;;;;;14.53;10.00;;;9.40;89.30;;;;;;5018593;28;20330;-84
2021/05/26 04:37:37;;;;;;;11.33;9.37;;;9.40;89.40;;;;;;5018376;28;20180;-84
2021/05/26 04:40:04;;;;;;;15.83;9.73;;;9.30;89.10;;;;;;5018381;28;20548;-85
2021/05/26 04:42:30;;;;;;;11.93;9.80;;;9.30;88.90;;;;;;5035969;28;20644;-84
2021/05/26 04:44:55;;;;;;;18.37;10.33;;;9.30;88.80;;;;;;5018338;28;20208;-84
2021/05/26 04:47:21;;;;;;;13.50;10.23;;;9.30;88.50;;;;;;5018167;28;20180;-84
2021/05/26 04:49:47;;;;;;;18.10;10.97;;;9.30;88.60;;;;;;5035923;28;20191;-84
2021/05/26 04:52:12;;;;;;;20.03;11.23;;;9.30;88.70;;;;;;5018184;28;20215;-84
2021/05/26 04:54:38;;;;;;;13.37;10.50;;;9.30;89.30;;;;;;5035863;28;20520;-84
2021/05/26 04:57:04;;;;;;;17.93;10.93;;;9.30;89.10;;;;;;5035627;28;20637;-85
2021/05/26 04:59:30;;;;;;;16.67;10.27;;;9.30;89.00;;;;;;5035620;28;20193;-84
2021/05/26 05:01:55;;;;;;;16.13;11.63;;;9.30;89.00;;;;;;5035800;28;20184;-84
2021/05/26 05:04:21;;;;;;;18.13;11.60;;;9.30;89.00;;;;;;5017773;28;20263;-84
2021/05/26 05:06:46;;;;;;;16.43;10.37;;;9.30;89.00;;;;;;5035547;28;20188;-84
2021/05/26 05:09:12;;;;;;;11.90;10.53;;;9.30;88.70;;;;;;5035595;28;20556;-84
2021/05/26 05:11:39;;;;;;;12.97;10.20;;;9.30;88.50;;;;;;5018082;28;20200;-84
2021/05/26 05:14:05;;;;;;;15.37;10.27;;;9.30;88.60;;;;;;5016369;28;20192;-84
2021/05/26 05:16:34;;;;;;;12.33;10.63;;;9.30;88.40;;;;;;5035570;28;20668;-84
2021/05/26 05:19:00;;;;;;;11.40;10.27;;;9.30;88.60;;;;;;5017697;28;20623;-84
2021/05/26 05:21:26;;;;;;;12.73;9.23;;;9.30;88.30;;;;;;5035887;28;20181;-84
2021/05/26 05:23:51;;;;;;;16.17;9.83;;;9.30;88.20;;;;;;5035186;28;20203;-84
2021/05/26 05:26:17;;;;;;;15.17;10.23;;;9.30;87.90;;;;;;5017533;28;20187;-84
2021/05/26 05:28:43;;;;;;;12.87;9.60;;;9.40;87.80;;;;;;5035338;28;20583;-84
2021/05/26 05:31:09;;;;;;;15.47;9.93;;;9.40;87.90;;;;;;5035744;28;20176;-84
2021/05/26 05:33:34;;;;;;;12.27;9.93;;;9.50;87.90;;;;;;5039019;28;20184;-85
2021/05/26 05:36:00;;;;;;;17.07;9.70;;;9.50;87.50;;;;;;5036704;28;20264;-84
2021/05/26 05:38:26;;;;;;;10.37;9.23;;;9.50;87.20;;;;;;5017295;28;20673;-84
2021/05/26 05:40:52;;;;;;;11.40;9.00;;;9.70;87.00;;;;;;5017285;28;20207;-84
2021/05/26 05:43:17;;;;;;;12.73;8.53;;;9.70;86.90;;;;;;5034987;28;20197;-84
2021/05/26 05:45:43;;;;;;;10.40;7.57;;;9.80;87.00;;;;;;5035320;28;20177;-84
2021/05/26 05:48:09;;;;;;;14.00;8.17;;;9.80;86.40;;;;;;5034963;28;20521;-85
2021/05/26 05:50:36;;;;;;;13.63;9.33;;;9.80;86.80;;;;;;5016961;28;20235;-84
2021/05/26 05:53:01;;;;;;;12.40;8.43;;;9.80;86.70;;;;;;5017100;28;20177;-84
2021/05/26 05:55:27;;;;;;;13.33;8.83;;;10.00;86.50;;;;;;5034641;28;20183;-84
2021/05/26 05:57:59;;;;;;;12.97;9.30;;;10.00;86.10;;;;;;5016948;28;20276;-84
2021/05/26 06:00:25;;;;;;;10.70;9.10;;;9.90;86.20;;;;;;5017235;28;20222;-84
2021/05/26 06:02:51;;;;;;;11.07;8.77;;;10.00;86.20;;;;;;5034557;28;20196;-84
2021/05/26 06:05:16;;;;;;;10.93;9.83;;;10.00;86.00;;;;;;5034929;28;20181;-84
2021/05/26 06:07:42;;;;;;;10.87;9.37;;;10.00;85.90;;;;;;5016783;28;20173;-84
2021/05/26 06:10:09;;;;;;;10.00;7.90;;;10.00;85.70;;;;;;5034551;28;20192;-83
2021/05/26 06:12:34;;;;;;;10.30;7.77;;;10.10;85.70;;;;;;5016995;28;20179;-83
2021/05/26 06:15:00;;;;;;;13.57;8.00;;;10.20;85.40;;;;;;5016748;28;20180;-84
2021/05/26 06:17:26;;;;;;;14.73;8.93;;;10.20;85.20;;;;;;5034652;28;20178;-84
2021/05/26 06:19:52;;;;;;;11.07;8.73;;;10.30;85.90;;;;;;5016496;28;20202;-84
2021/05/26 06:22:17;;;;;;;10.63;8.27;;;10.30;86.00;;;;;;5034309;28;20232;-84
2021/05/26 06:24:43;;;;;;;15.23;9.53;;;10.40;85.20;;;;;;5033765;28;20251;-84
2021/05/26 06:27:09;;;;;;;10.93;7.53;;;10.50;85.60;;;;;;5034223;28;20169;-84
2021/05/26 06:29:34;;;;;;;10.37;9.13;;;10.50;84.80;;;;;;5016103;28;20208;-85
2021/05/26 06:32:00;;;;;;;10.97;9.23;;;10.50;85.40;;;;;;5016453;28;20174;-85
2021/05/26 06:34:25;;;;;;;13.87;9.10;;;10.50;85.20;;;;;;5016626;28;20246;-84
2021/05/26 06:36:51;;;;;;;11.00;8.73;;;10.50;85.40;;;;;;5033963;28;20171;-84
2021/05/26 06:39:17;;;;;;;10.87;7.93;;;10.50;85.10;;;;;;5033816;28;20706;-84
2021/05/26 06:41:43;;;;;;;13.37;7.97;;;10.50;84.60;;;;;;5016356;28;20187;-84
2021/05/26 06:44:09;;;;;;;13.43;9.30;;;10.40;84.40;;;;;;5033812;28;20208;-84
2021/05/26 06:46:34;;;;;;;11.33;9.40;;;10.50;84.80;;;;;;5016162;28;20341;-84
2021/05/26 06:49:00;;;;;;;9.90;8.60;;;10.60;85.40;;;;;;5034157;28;20651;-83
2021/05/26 06:51:26;;;;;;;15.47;9.67;;;10.60;85.20;;;;;;5034907;28;20173;-84
2021/05/26 06:53:52;;;;;;;13.37;8.57;;;10.60;85.40;;;;;;5035092;28;20172;-84
2021/05/26 06:56:18;;;;;;;10.10;8.83;;;10.60;85.50;;;;;;5017555;28;20188;-83
2021/05/26 06:58:43;;;;;;;12.97;8.50;;;10.70;85.70;;;;;;5034642;28;20188;-83
2021/05/26 07:01:09;;;;;;;8.97;8.07;;;10.60;84.90;;;;;;5033803;28;20174;-84
2021/05/26 07:03:35;;;;;;;9.27;8.37;;;10.70;85.10;;;;;;5015826;28;20299;-84
2021/05/26 07:06:00;;;;;;;8.70;7.57;;;10.80;85.40;;;;;;5016871;28;20184;-85
2021/05/26 07:08:26;;;;;;;7.33;6.70;;;11.00;85.10;;;;;;5033766;28;20192;-84
2021/05/26 07:10:51;;;;;;;8.60;6.97;;;11.10;84.80;;;;;;5033542;28;20547;-83
2021/05/26 07:13:17;;;;;;;8.30;6.70;;;11.00;83.50;;;;;;5015772;28;20271;-84
2021/05/26 07:15:43;;;;;;;8.67;5.93;;;11.10;84.80;;;;;;5033463;28;20211;-84
2021/05/26 07:18:09;;;;;;;11.03;6.53;;;11.10;84.30;;;;;;5015609;28;20180;-84
2021/05/26 07:20:36;;;;;;;9.23;6.90;;;11.10;84.40;;;;;;5033860;28;20169;-84
2021/05/26 07:23:02;;;;;;;7.40;6.33;;;11.20;83.90;;;;;;5033529;28;20656;-83
2021/05/26 07:25:28;;;;;;;8.10;7.30;;;11.10;83.20;;;;;;5015754;28;20176;-83
2021/05/26 07:27:54;;;;;;;8.70;7.60;;;11.20;84.30;;;;;;5033906;28;20591;-83
2021/05/26 07:30:21;;;;;;;10.03;8.77;;;11.00;84.30;;;;;;5016499;28;20279;-83
2021/05/26 07:32:48;;;;;;;9.30;8.30;;;10.90;84.70;;;;;;5033687;28;20191;-82
2021/05/26 07:35:14;;;;;;;10.37;9.07;;;10.80;85.70;;;;;;5016289;28;20567;-83
2021/05/26 07:37:40;;;;;;;10.30;8.37;;;10.70;86.30;;;;;;5035677;28;20198;-83
2021/05/26 07:40:08;;;;;;;10.80;8.47;;;10.80;86.70;;;;;;5019958;28;20246;-83
2021/05/26 07:42:33;;;;;;;10.93;9.03;;;10.70;86.70;;;;;;5037522;28;20660;-84
2021/05/26 07:44:59;;;;;;;14.40;9.60;;;10.70;87.30;;;;;;5019547;28;20195;-86
2021/05/26 07:47:25;;;;;;;10.37;9.47;;;10.70;87.40;;;;;;5037143;28;20175;-86
2021/05/26 07:49:52;;;;;;;7.97;7.13;;;10.70;87.30;;;;;;5019181;28;20201;-87
2021/05/26 07:52:21;;;;;;;9.93;8.80;;;10.70;86.00;;;;;;5037127;28;20255;-87
2021/05/26 07:54:48;;;;;;;11.83;8.90;;;10.90;88.70;;;;;;5019249;28;20177;-85
2021/05/26 07:57:15;;;;;;;7.10;6.40;;;11.00;88.10;;;;;;5019288;28;20177;-87
2021/05/26 07:59:42;;;;;;;8.27;6.77;;;11.00;86.20;;;;;;5019233;28;20203;-87
2021/05/26 08:02:07;;;;;;;6.87;6.27;;;11.20;86.70;;;;;;5037072;28;20269;-87
2021/05/26 08:04:33;;;;;;;8.03;6.33;;;11.20;86.60;;;;;;5036811;28;20169;-87
2021/05/26 08:06:59;;;;;;;6.37;5.30;;;11.10;87.10;;;;;;5019309;28;20181;-87
2021/05/26 08:09:24;;;;;;;6.10;5.50;;;10.80;86.70;;;;;;5018985;28;20197;-87
2021/05/26 08:11:50;;;;;;;10.73;8.23;;;10.40;87.20;;;;;;5036552;28;20179;-86
2021/05/26 08:14:16;;;;;;;11.07;9.97;;;10.40;88.30;;;;;;5018880;28;20178;-87
2021/05/26 08:16:41;;;;;;;11.10;9.70;;;10.30;88.90;;;;;;5036533;28;20173;-86
2021/05/26 08:19:07;;;;;;;12.47;11.17;;;10.40;89.00;;;;;;5018778;28;20203;-87
2021/05/26 08:21:33;;;;;;;14.67;11.90;;;10.40;89.00;;;;;;5036372;28;20648;-87
2021/05/26 08:23:58;;;;;;;14.93;13.27;;;10.60;88.70;;;;;;5018501;28;20300;-87
2021/05/26 08:26:24;;;;;;;18.83;15.23;;;10.50;88.10;;;;;;5018942;28;20169;-85
2021/05/26 08:28:52;;;;;;;16.23;14.30;;;10.70;89.10;;;;;;5018564;28;20235;-86
2021/05/26 08:31:18;;;;;;;19.20;14.17;;;10.80;88.70;;;;;;5020146;28;20222;-87
2021/05/26 08:33:45;;;;;;;16.43;14.43;;;11.00;88.40;;;;;;5019829;28;20183;-87
2021/05/26 08:36:11;;;;;;;17.63;15.93;;;11.30;88.00;;;;;;5037839;28;20238;-87
2021/05/26 08:38:38;;;;;;;18.27;14.43;;;11.60;87.90;;;;;;5036868;28;20264;-87
2021/05/26 08:41:06;;;;;;;20.07;11.97;;;11.80;86.90;;;;;;5037195;28;20173;-87
2021/05/26 08:43:37;;;;;;;10.43;9.03;;;11.60;85.60;;;;;;5019116;28;20207;-87
2021/05/26 08:46:05;;;;;;;14.37;11.33;;;11.40;83.80;;;;;;5020170;28;20161;-86
2021/05/26 08:48:32;;;;;;;15.50;11.53;;;11.40;84.80;;;;;;5036625;28;20189;-86
2021/05/26 08:50:59;;;;;;;14.30;11.53;;;11.40;84.60;;;;;;5036459;28;20227;-86
2021/05/26 08:53:25;;;;;;;16.00;12.53;;;11.40;84.70;;;;;;5036799;28;20169;-87
2021/05/26 08:55:51;;;;;;;17.33;10.67;;;11.30;85.00;;;;;;5036781;28;20204;-86
2021/05/26 08:58:17;;;;;;;15.80;11.57;;;11.30;84.90;;;;;;5019317;28;20200;-86
2021/05/26 09:00:43;;;;;;;17.20;13.27;;;11.20;85.60;;;;;;5019099;28;20278;-86
2021/05/26 09:03:10;;;;;;;14.23;12.60;;;11.10;85.50;;;;;;5019283;28;20295;-86
2021/05/26 09:05:36;;;;;;;16.37;10.80;;;11.10;86.20;;;;;;5037251;28;20169;-86
2021/05/26 09:08:19;;;;;;;14.33;12.83;;;11.00;85.40;;;;;;5019090;28;20211;-87
2021/05/26 09:10:58;;;;;;;18.63;13.20;;;11.10;86.10;;;;;;5036011;28;20169;-87
2021/05/26 09:13:34;;;;;;;18.37;13.90;;;11.20;85.50;;;;;;5018805;28;20184;-86
2021/05/26 09:16:00;;;;;;;18.60;12.67;;;11.20;85.60;;;;;;5018342;28;20222;-88
2021/05/26 09:18:26;;;;;;;15.67;12.37;;;11.30;85.00;;;;;;5018154;28;20283;-87
2021/05/26 09:20:52;;;;;;;13.77;10.83;;;11.40;85.40;;;;;;5035825;28;20268;-87
2021/05/26 09:23:27;;;;;;;15.40;9.87;;;11.50;84.20;;;;;;5018076;28;20200;-86
2021/05/26 09:25:57;;;;;;;15.20;11.07;;;11.50;83.60;;;;;;5017841;28;20156;-87
2021/05/26 09:28:29;;;;;;;13.97;7.63;;;11.60;83.90;;;;;;5017539;28;20200;-86
2021/05/26 09:30:56;;;;;;;14.03;8.47;;;11.60;82.70;;;;;;5018539;28;20157;-86
2021/05/26 09:33:40;;;;;;;12.70;6.83;;;11.70;82.60;;;;;;5036193;28;20671;-86
2021/05/26 09:36:22;;;;;;;10.93;6.83;;;11.60;82.30;;;;;;5018020;28;20172;-87
2021/05/26 09:38:48;;;;;;;6.60;5.27;;;11.50;81.10;;;;;;5017783;28;20192;-87
2021/05/26 09:41:17;;;;;;;8.73;5.90;;;11.60;81.10;;;;;;5035595;28;20172;-87
2021/05/26 09:43:45;;;;;;;8.07;4.90;;;11.70;81.30;;;;;;5017786;28;20695;-87
2021/05/26 09:46:40;;;;;;;14.07;5.37;;;11.70;80.90;;;;;;5035348;28;20604;-87
2021/05/26 09:49:11;;;;;;;9.17;4.67;;;11.90;80.60;;;;;;5018013;28;20189;-85
2021/05/26 09:51:49;;;;;;;10.10;5.63;;;12.10;80.10;;;;;;5019676;28;20504;-86
2021/05/26 09:54:29;;;;;;;6.70;4.57;;;12.00;80.20;;;;;;5018645;28;20218;-87
2021/05/26 09:56:55;;;;;;;8.63;5.23;;;12.00;79.30;;;;;;5036271;28;20165;-86
2021/05/26 09:59:22;;;;;;;20.20;7.83;;;11.90;81.00;;;;;;5017796;28;20200;-86
2021/05/26 10:01:53;;;;;;;12.23;6.93;;;11.70;81.40;;;;;;5018143;28;20178;-86
2021/05/26 10:04:20;;;;;;;9.27;6.97;;;11.50;82.80;;;;;;5035587;28;20211;-88
2021/05/26 10:06:48;;;;;;;7.10;5.40;;;11.30;82.90;;;;;;5018052;28;20173;-85
2021/05/26 10:09:15;;;;;;;12.83;7.20;;;11.30;83.10;;;;;;5018001;28;20188;-86
2021/05/26 10:11:41;;;;;;;11.37;7.83;;;11.30;83.50;;;;;;5036350;28;20200;-86
2021/05/26 10:14:11;;;;;;;9.77;7.53;;;11.60;85.10;;;;;;5019372;28;20173;-87
2021/05/26 10:16:41;;;;;;;11.50;7.17;;;12.10;84.70;;;;;;5035932;28;20168;-86
2021/05/26 10:19:07;;;;;;;8.93;5.80;;;12.30;83.40;;;;;;5018289;28;20676;-86
2021/05/26 10:21:34;;;;;;;9.57;5.80;;;12.60;82.90;;;;;;5036557;28;20173;-86
2021/05/26 10:24:05;;;;;;;6.33;5.07;;;12.70;81.90;;;;;;5036233;28;20207;-87
2021/05/26 10:26:55;;;;;;;6.93;4.33;;;12.60;80.10;;;;;;5036066;28;20149;-86
2021/05/26 10:29:30;;;;;;;8.00;3.90;;;12.30;77.50;;;;;;5017854;28;20205;-87
2021/05/26 10:32:03;;;;;;;5.77;3.40;;;12.30;80.70;;;;;;5017826;28;20176;-86
2021/05/26 10:34:47;;;;;;;5.67;3.33;;;12.20;78.70;;;;;;5037156;28;20516;-85
2021/05/26 10:37:24;;;;;;;2.90;2.37;;;12.20;79.70;;;;;;5036453;28;20175;-85
2021/05/26 10:39:50;;;;;;;6.77;3.23;;;12.20;78.90;;;;;;5018631;28;20196;-86
2021/05/26 10:42:28;;;;;;;7.77;3.20;;;12.00;78.60;;;;;;5035661;28;20204;-85
2021/05/26 10:45:03;;;;;;;8.13;3.70;;;12.20;80.10;;;;;;5036908;28;20636;-84
2021/05/26 10:47:38;;;;;;;9.30;4.00;;;12.50;79.80;;;;;;5017551;28;20583;-85
2021/05/26 10:50:04;;;;;;;3.80;3.40;;;12.70;79.60;;;;;;5035224;28;20184;-84
2021/05/26 10:52:56;;;;;;;6.23;3.87;;;13.00;78.80;;;;;;5035762;28;20177;-86
2021/05/26 10:55:41;;;;;;;4.83;2.80;;;13.30;79.20;;;;;;5035707;28;20180;-84
2021/05/26 10:58:13;;;;;;;4.80;2.97;;;13.20;76.90;;;;;;5037184;28;20251;-84
2021/05/26 11:00:48;;;;;;;6.57;2.23;;;13.00;76.60;;;;;;5035703;28;20168;-85
2021/05/26 11:03:29;;;;;;;4.33;2.23;;;12.30;78.70;;;;;;5035591;28;20618;-84
2021/05/26 11:06:25;;;;;;;2.70;1.40;;;12.20;83.50;;;;;;5035348;28;20168;-84
2021/05/26 11:08:53;;;;;;;5.23;2.57;;;12.20;80.90;;;;;;5016021;28;20207;-84
2021/05/26 11:11:18;;;;;;;3.07;2.37;;;12.60;83.50;;;;;;5033870;28;20223;-84
2021/05/26 11:14:14;;;;;;;4.63;2.57;;;12.90;81.20;;;;;;5015944;28;20176;-83
2021/05/26 11:16:40;;;;;;;5.90;3.00;;;13.20;78.20;;;;;;5034000;28;20149;-84
2021/05/26 11:19:13;;;;;;;2.70;2.13;;;13.50;79.30;;;;;;5016239;28;20254;-85
2021/05/26 11:21:40;;;;;;;2.87;2.47;;;13.40;77.00;;;;;;5016406;28;20485;-84
2021/05/26 11:24:06;;;;;;;8.10;2.50;;;13.70;77.50;;;;;;5033806;28;20262;-85
2021/05/26 11:26:33;;;;;;;3.60;2.50;;;13.80;76.00;;;;;;5018309;28;20716;-85
2021/05/26 11:28:59;;;;;;;5.90;2.87;;;13.70;76.40;;;;;;5033798;28;20200;-85
2021/05/26 11:31:25;;;;;;;7.00;3.30;;;13.60;77.00;;;;;;5033786;28;20343;-85
2021/05/26 11:33:59;;;;;;;4.77;2.50;;;13.30;76.80;;;;;;5016367;28;20216;-84
2021/05/26 11:36:44;;;;;;;5.50;3.10;;;13.10;75.40;;;;;;5016188;28;20711;-84
2021/05/26 11:39:35;;;;;;;4.97;2.60;;;12.80;77.10;;;;;;5057966;22;20232;-84
2021/05/26 11:42:23;;;;;;;6.37;3.63;;;12.70;76.50;;;;;;5015317;28;20207;-85
2021/05/26 11:44:56;;;;;;;2.53;2.20;;;12.90;78.00;;;;;;5033068;28;20153;-85
2021/05/26 11:47:42;;;;;;;6.40;2.13;;;13.30;75.90;;;;;;5015385;28;20180;-85
2021/05/26 11:50:17;;;;;;;6.80;2.37;;;13.80;75.50;;;;;;4995733;28;20178;-85
2021/05/26 11:52:50;;;;;;;4.60;2.10;;;14.00;72.30;;;;;;5013372;28;20679;-85
2021/05/26 11:55:23;;;;;;;4.73;2.03;;;13.90;71.60;;;;;;5013339;28;20158;-85
2021/05/26 11:57:53;;;;;;;2.43;2.13;;;13.70;73.40;;;;;;4995623;28;20173;-85
2021/05/26 12:00:24;;;;;;;2.97;2.40;;;13.30;73.80;;;;;;4995696;28;20169;-85
2021/05/26 12:02:57;;;;;;;6.03;2.53;;;13.30;75.00;;;;;;5013124;28;20189;-85
2021/05/26 12:05:43;;;;;;;4.40;2.50;;;13.10;74.70;;;;;;5013290;28;20165;-85
2021/05/26 12:08:27;;;;;;;5.47;2.37;;;12.80;74.40;;;;;;5013196;28;20264;-85
2021/05/26 12:10:54;;;;;;;4.30;2.80;;;13.00;75.70;;;;;;4995415;28;20256;-84
2021/05/26 12:13:46;;;;;;;1.33;1.00;;;12.90;75.80;;;;;;5013156;28;20173;-85
2021/05/26 12:16:22;;;;;;;1.00;0.90;;;12.70;72.80;;;;;;4995460;28;20166;-86
2021/05/26 12:18:53;;;;;;;0.73;0.70;;;12.20;69.40;;;;;;4995376;28;20201;-85
2021/05/26 12:21:23;;;;;;;0.70;0.70;;;12.10;70.70;;;;;;4995567;28;20170;-85
2021/05/26 12:23:49;;;;;;;5.63;1.00;;;11.80;71.50;;;;;;5015021;28;20288;-85
2021/05/26 12:26:32;;;;;;;2.17;1.23;;;11.90;72.10;;;;;;5015365;28;20260;-85
2021/05/26 12:29:02;;;;;;;1.73;1.37;;;12.00;74.40;;;;;;4999052;28;20194;-85
2021/05/26 12:31:30;;;;;;;2.13;1.47;;;12.10;74.50;;;;;;5016900;28;20152;-85
2021/05/26 12:33:56;;;;;;;2.87;1.03;;;12.10;75.50;;;;;;4998996;28;20181;-85
2021/05/26 12:36:27;;;;;;;1.20;1.10;;;12.10;74.00;;;;;;5016541;28;20173;-85
2021/05/26 12:39:02;;;;;;;2.70;2.20;;;12.10;73.90;;;;;;4998732;28;20216;-85
2021/05/26 12:41:33;;;;;;;3.60;2.40;;;12.10;75.50;;;;;;5016372;28;20180;-86
2021/05/26 12:44:20;;;;;;;4.53;2.80;;;12.10;75.80;;;;;;5016414;28;20193;-85
2021/05/26 12:46:55;;;;;;;6.80;4.97;;;12.20;78.70;;;;;;4998743;28;20177;-87
2021/05/26 12:49:35;;;;;;;8.97;2.87;;;12.10;80.20;;;;;;5016201;28;20288;-87